createdAt,value
2018-12-21T00:00:05.329Z,6.41
2018-12-21T00:01:20.011Z,6.44
2018-12-21T00:02:05.358Z,6.46
2018-12-21T00:03:05.373Z,6.38
2018-12-21T00:07:05.432Z,6.58
2018-12-21T00:08:05.446Z,6.58
2018-12-21T00:09:05.463Z,6.62
2018-12-21T00:10:05.479Z,6.54
2018-12-21T00:11:20.158Z,6.62
2018-12-21T00:12:05.514Z,6.64
2018-12-21T00:13:05.526Z,6.55
2018-12-21T00:14:05.555Z,6.56
2018-12-21T00:15:05.555Z,6.56
2018-12-21T00:16:05.569Z,6.61
2018-12-21T00:17:05.586Z,6.41
2018-12-21T00:18:05.604Z,6.44
2018-12-21T00:20:05.634Z,6.33
2018-12-21T00:21:05.650Z,6.31
2018-12-21T00:24:05.802Z,6.27
2018-12-21T00:25:05.710Z,6.17
2018-12-21T00:27:20.505Z,6.11
2018-12-21T00:28:05.756Z,6.09
2018-12-21T00:29:05.772Z,6.09
2018-12-21T00:30:05.795Z,6.11
2018-12-21T00:31:05.803Z,6.17
2018-12-21T00:32:05.825Z,6.08
2018-12-21T00:33:05.832Z,6.19
2018-12-21T00:34:05.851Z,6.15
2018-12-21T00:37:05.895Z,6.06
2018-12-21T00:38:08.075Z,6.03
2018-12-21T00:39:05.931Z,5.93
2018-12-21T00:40:05.947Z,6
2018-12-21T00:41:20.615Z,5.91
2018-12-21T00:42:20.635Z,5.89
2018-12-21T00:43:06.054Z,5.96
2018-12-21T00:44:05.999Z,5.94
2018-12-21T00:45:06.023Z,5.83
2018-12-21T00:46:06.030Z,5.89
2018-12-21T00:47:06.044Z,5.76
2018-12-21T00:49:06.077Z,5.72
2018-12-21T00:51:06.108Z,5.58
2018-12-21T00:53:20.823Z,5.53
2018-12-21T00:54:06.155Z,5.54
2018-12-21T00:55:06.169Z,5.56
2018-12-21T00:56:06.185Z,5.54
2018-12-21T00:57:06.196Z,5.48
2018-12-21T00:58:06.217Z,5.49
2018-12-21T00:59:06.227Z,5.4
2018-12-21T01:00:06.351Z,5.54
2018-12-21T01:01:06.259Z,5.49
2018-12-21T01:02:06.271Z,5.38
2018-12-21T01:03:06.876Z,5.46
2018-12-21T01:04:06.055Z,5.35
2018-12-21T01:05:20.986Z,5.33
2018-12-21T01:06:06.334Z,5.31
2018-12-21T01:08:06.360Z,5.33
2018-12-21T01:09:06.378Z,5.25
2018-12-21T01:10:06.393Z,5.21
2018-12-21T01:11:06.414Z,5.21
2018-12-21T01:12:06.424Z,5.22
2018-12-21T01:13:06.438Z,5.31
2018-12-21T01:14:21.118Z,5.27
2018-12-21T01:15:06.468Z,5.24
2018-12-21T01:16:06.483Z,5.27
2018-12-21T01:17:06.497Z,5.3
2018-12-21T01:18:06.510Z,5.36
2018-12-21T01:19:06.528Z,5.3
2018-12-21T01:20:06.551Z,5.24
2018-12-21T01:21:06.557Z,5.25
2018-12-21T01:22:06.571Z,5.28
2018-12-21T01:23:06.715Z,5.28
2018-12-21T01:24:06.600Z,5.39
2018-12-21T01:25:21.281Z,5.46
2018-12-21T01:26:06.639Z,5.49
2018-12-21T01:27:06.657Z,5.48
2018-12-21T01:28:06.659Z,5.46
2018-12-21T01:29:06.678Z,5.4
2018-12-21T01:30:21.358Z,5.38
2018-12-21T01:31:06.706Z,5.38
2018-12-21T01:32:06.725Z,5.51
2018-12-21T01:33:06.740Z,5.49
2018-12-21T01:34:06.750Z,5.54
2018-12-21T01:35:06.764Z,5.49
2018-12-21T01:36:06.783Z,5.53
2018-12-21T01:37:06.801Z,5.48
2018-12-21T01:39:06.828Z,5.54
2018-12-21T01:40:06.849Z,5.61
2018-12-21T01:41:06.859Z,5.6
2018-12-21T01:42:06.873Z,5.64
2018-12-21T01:43:06.885Z,5.72
2018-12-21T01:44:06.908Z,5.68
2018-12-21T01:45:06.921Z,5.68
2018-12-21T01:46:21.595Z,5.68
2018-12-21T01:47:07.045Z,5.63
2018-12-21T01:48:06.963Z,5.64
2018-12-21T01:49:06.985Z,5.68
2018-12-21T01:50:06.998Z,5.68
2018-12-21T01:51:07.007Z,5.75
2018-12-21T01:52:07.026Z,5.76
2018-12-21T01:53:07.050Z,5.83
2018-12-21T01:54:07.051Z,5.78
2018-12-21T01:55:07.070Z,5.82
2018-12-21T01:56:07.083Z,5.82
2018-12-21T01:57:07.098Z,5.83
2018-12-21T01:58:07.114Z,5.89
2018-12-21T01:59:07.129Z,5.83
2018-12-21T02:00:07.147Z,5.9
2018-12-21T02:01:07.252Z,5.86
2018-12-21T02:02:21.837Z,5.89
2018-12-21T02:03:07.290Z,5.82
2018-12-21T02:04:07.212Z,5.89
2018-12-21T02:05:07.218Z,5.91
2018-12-21T02:06:07.235Z,5.97
2018-12-21T02:08:07.365Z,5.97
2018-12-21T02:09:07.279Z,5.97
2018-12-21T02:10:07.298Z,6.03
2018-12-21T02:11:07.308Z,6.03
2018-12-21T02:12:07.330Z,6.03
2018-12-21T02:14:07.354Z,6.03
2018-12-21T02:15:22.036Z,6
2018-12-21T02:16:07.488Z,6.12
2018-12-21T02:17:22.065Z,5.99
2018-12-21T02:18:07.419Z,5.97
2018-12-21T02:19:07.435Z,6
2018-12-21T02:20:07.448Z,6.08
2018-12-21T02:21:07.463Z,5.99
2018-12-21T02:22:07.479Z,6
2018-12-21T02:23:07.494Z,6.09
2018-12-21T02:24:07.508Z,5.99
2018-12-21T02:25:07.529Z,6.01
2018-12-21T02:26:07.545Z,6.11
2018-12-21T02:29:07.583Z,6.12
2018-12-21T02:30:22.263Z,6.04
2018-12-21T02:31:07.615Z,6.15
2018-12-21T02:32:07.637Z,6.09
2018-12-21T02:33:07.649Z,6.04
2018-12-21T02:34:07.665Z,6.12
2018-12-21T02:35:07.686Z,6.15
2018-12-21T02:36:07.867Z,6.15
2018-12-21T02:37:07.722Z,6.09
2018-12-21T02:38:07.729Z,6.12
2018-12-21T02:39:07.737Z,6.04
2018-12-21T02:40:07.756Z,6.14
2018-12-21T02:42:22.449Z,6.3
2018-12-21T02:43:07.801Z,6.27
2018-12-21T02:44:07.825Z,6.14
2018-12-21T02:45:07.827Z,6.22
2018-12-21T02:46:22.508Z,6.22
2018-12-21T02:47:07.858Z,6.31
2018-12-21T02:48:07.880Z,6.3
2018-12-21T02:49:22.565Z,6.33
2018-12-21T02:50:07.907Z,6.33
2018-12-21T02:51:07.924Z,6.33
2018-12-21T02:52:10.575Z,6.3
2018-12-21T02:53:07.953Z,6.34
2018-12-21T02:54:07.969Z,6.44
2018-12-21T02:55:07.982Z,6.49
2018-12-21T02:56:07.997Z,6.55
2018-12-21T02:57:08.012Z,6.55
2018-12-21T02:58:08.035Z,6.55
2018-12-21T02:59:07.806Z,6.54
2018-12-21T03:00:08.067Z,6.44
2018-12-21T03:01:08.084Z,6.43
2018-12-21T03:02:22.752Z,6.46
2018-12-21T03:03:22.768Z,6.38
2018-12-21T03:04:08.134Z,6.54
2018-12-21T03:05:22.798Z,6.43
2018-12-21T03:06:08.152Z,6.52
2018-12-21T03:07:08.165Z,6.55
2018-12-21T03:08:08.187Z,6.55
2018-12-21T03:09:08.197Z,6.55
2018-12-21T03:10:08.214Z,6.61
2018-12-21T03:12:08.387Z,6.73
2018-12-21T03:13:08.257Z,6.61
2018-12-21T03:14:08.402Z,6.55
2018-12-21T03:15:08.295Z,6.56
2018-12-21T03:17:22.984Z,6.59
2018-12-21T03:18:22.998Z,6.64
2018-12-21T03:19:08.358Z,6.62
2018-12-21T03:20:08.385Z,6.64
2018-12-21T03:21:23.052Z,6.59
2018-12-21T03:22:16.804Z,6.7
2018-12-21T03:23:08.418Z,6.59
2018-12-21T03:24:08.435Z,6.59
2018-12-21T03:25:08.447Z,6.64
2018-12-21T03:26:08.468Z,6.71
2018-12-21T03:27:08.476Z,6.71
2018-12-21T03:28:08.516Z,6.71
2018-12-21T03:29:08.504Z,6.74
2018-12-21T03:30:08.525Z,6.74
2018-12-21T03:31:08.638Z,6.7
2018-12-21T03:32:08.565Z,6.64
2018-12-21T03:33:08.575Z,6.69
2018-12-21T03:34:08.858Z,6.7
2018-12-21T03:35:08.612Z,6.76
2018-12-21T03:36:08.626Z,6.71
2018-12-21T03:37:23.299Z,6.69
2018-12-21T03:38:08.644Z,6.73
2018-12-21T03:39:08.670Z,6.69
2018-12-21T03:40:08.699Z,6.7
2018-12-21T03:41:08.688Z,6.77
2018-12-21T03:42:08.705Z,6.76
2018-12-21T03:43:08.725Z,6.67
2018-12-21T03:44:08.745Z,6.76
2018-12-21T03:45:08.759Z,6.77
2018-12-21T03:46:23.436Z,6.73
2018-12-21T03:47:08.789Z,6.79
2018-12-21T03:48:08.877Z,6.67
2018-12-21T03:49:08.914Z,6.79
2018-12-21T03:50:23.493Z,6.71
2018-12-21T03:51:08.855Z,6.71
2018-12-21T03:52:27.075Z,6.7
2018-12-21T03:53:08.876Z,6.74
2018-12-21T03:54:08.894Z,6.67
2018-12-21T03:55:08.922Z,6.71
2018-12-21T03:56:08.940Z,6.67
2018-12-21T03:57:08.938Z,6.74
2018-12-21T03:58:08.967Z,6.71
2018-12-21T03:59:08.969Z,6.71
2018-12-21T04:00:08.984Z,6.71
2018-12-21T04:01:09.009Z,6.71
2018-12-21T04:02:23.681Z,6.74
2018-12-21T04:03:09.040Z,6.69
2018-12-21T04:04:09.051Z,6.69
2018-12-21T04:05:09.088Z,6.7
2018-12-21T04:06:23.738Z,6.67
2018-12-21T04:07:09.252Z,6.69
2018-12-21T04:08:09.108Z,6.71
2018-12-21T04:09:09.124Z,6.71
2018-12-21T04:10:09.139Z,6.74
2018-12-21T04:11:09.156Z,6.7
2018-12-21T04:12:09.174Z,6.74
2018-12-21T04:14:09.202Z,6.73
2018-12-21T04:15:09.219Z,6.71
2018-12-21T04:16:09.246Z,6.73
2018-12-21T04:17:09.255Z,6.7
2018-12-21T04:18:09.372Z,6.74
2018-12-21T04:19:23.943Z,6.8
2018-12-21T04:20:09.328Z,6.77
2018-12-21T04:21:23.972Z,6.73
2018-12-21T04:22:09.335Z,6.71
2018-12-21T04:23:09.341Z,6.77
2018-12-21T04:24:24.018Z,6.7
2018-12-21T04:25:09.379Z,6.66
2018-12-21T04:26:09.389Z,6.64
2018-12-21T04:27:09.410Z,6.64
2018-12-21T04:28:09.434Z,6.73
2018-12-21T04:29:10.216Z,6.73
2018-12-21T04:30:09.449Z,6.79
2018-12-21T04:32:09.479Z,6.77
2018-12-21T04:33:09.498Z,6.79
2018-12-21T04:34:09.528Z,6.8
2018-12-21T04:35:09.529Z,6.85
2018-12-21T04:36:24.206Z,6.81
2018-12-21T04:37:09.593Z,6.85
2018-12-21T04:38:09.582Z,6.74
2018-12-21T04:39:09.592Z,6.79
2018-12-21T04:40:24.022Z,6.84
2018-12-21T04:41:09.622Z,6.84
2018-12-21T04:42:09.640Z,6.73
2018-12-21T04:43:09.649Z,6.73
2018-12-21T04:44:09.667Z,6.8
2018-12-21T04:45:09.702Z,6.79
2018-12-21T04:46:09.695Z,6.85
2018-12-21T04:47:09.711Z,6.8
2018-12-21T04:48:09.741Z,6.94
2018-12-21T04:49:09.750Z,6.84
2018-12-21T04:50:09.759Z,6.89
2018-12-21T04:52:09.790Z,6.84
2018-12-21T04:53:09.804Z,6.85
2018-12-21T04:54:09.584Z,6.85
2018-12-21T04:55:09.837Z,6.94
2018-12-21T04:56:24.531Z,6.84
2018-12-21T04:57:09.869Z,6.89
2018-12-21T04:58:09.896Z,6.95
2018-12-21T04:59:12.189Z,6.95
2018-12-21T05:00:09.994Z,6.84
2018-12-21T05:01:09.941Z,6.85
2018-12-21T05:02:09.954Z,6.87
2018-12-21T05:05:09.998Z,6.91
2018-12-21T05:06:24.675Z,6.92
2018-12-21T05:07:17.366Z,6.85
2018-12-21T05:08:24.702Z,6.94
2018-12-21T05:09:10.103Z,6.94
2018-12-21T05:10:10.175Z,6.89
2018-12-21T05:11:10.086Z,6.95
2018-12-21T05:12:24.764Z,6.8
2018-12-21T05:13:10.116Z,6.77
2018-12-21T05:14:12.833Z,6.74
2018-12-21T05:15:10.148Z,6.76
2018-12-21T05:16:10.165Z,6.84
2018-12-21T05:17:10.185Z,6.85
2018-12-21T05:18:24.864Z,6.84
2018-12-21T05:19:10.217Z,6.85
2018-12-21T05:20:10.229Z,6.79
2018-12-21T05:21:10.250Z,6.81
2018-12-21T05:22:10.265Z,6.77
2018-12-21T05:23:10.275Z,6.91
2018-12-21T05:24:10.289Z,6.8
2018-12-21T05:25:10.308Z,6.77
2018-12-21T05:26:10.370Z,6.76
2018-12-21T05:27:25.003Z,6.87
2018-12-21T05:28:10.359Z,6.87
2018-12-21T05:29:10.370Z,6.87
2018-12-21T05:30:10.391Z,6.8
2018-12-21T05:31:10.405Z,6.77
2018-12-21T05:32:10.414Z,6.76
2018-12-21T05:33:10.483Z,6.81
2018-12-21T05:34:10.532Z,6.87
2018-12-21T05:35:10.471Z,6.8
2018-12-21T05:36:10.487Z,6.76
2018-12-21T05:37:10.495Z,6.85
2018-12-21T05:39:10.523Z,6.77
2018-12-21T05:40:25.206Z,6.85
2018-12-21T05:41:10.555Z,6.79
2018-12-21T05:42:10.581Z,6.85
2018-12-21T05:43:10.587Z,6.8
2018-12-21T05:44:10.604Z,6.77
2018-12-21T05:45:10.623Z,6.85
2018-12-21T05:46:10.635Z,6.79
2018-12-21T05:47:10.706Z,6.91
2018-12-21T05:48:10.674Z,6.88
2018-12-21T05:49:10.686Z,6.94
2018-12-21T05:50:25.366Z,6.92
2018-12-21T05:51:10.712Z,6.91
2018-12-21T05:52:10.727Z,6.84
2018-12-21T05:54:10.759Z,6.85
2018-12-21T05:55:10.780Z,6.74
2018-12-21T05:56:10.794Z,6.77
2018-12-21T05:57:10.806Z,6.74
2018-12-21T05:58:10.822Z,6.77
2018-12-21T05:59:25.515Z,6.8
2018-12-21T06:00:10.853Z,6.74
2018-12-21T06:01:10.872Z,6.92
2018-12-21T06:03:10.900Z,6.8
2018-12-21T06:04:10.922Z,6.81
2018-12-21T06:05:10.937Z,6.81
2018-12-21T06:06:25.617Z,6.79
2018-12-21T06:07:10.964Z,6.79
2018-12-21T06:08:10.980Z,6.79
2018-12-21T06:10:11.014Z,6.76
2018-12-21T06:11:11.027Z,6.89
2018-12-21T06:12:11.046Z,6.74
2018-12-21T06:13:25.720Z,6.8
2018-12-21T06:14:11.072Z,6.85
2018-12-21T06:15:25.752Z,6.74
2018-12-21T06:16:11.109Z,6.8
2018-12-21T06:17:11.120Z,6.73
2018-12-21T06:18:11.137Z,6.74
2018-12-21T06:19:12.218Z,6.73
2018-12-21T06:20:11.166Z,6.71
2018-12-21T06:21:11.184Z,6.79
2018-12-21T06:22:11.203Z,6.81
2018-12-21T06:24:11.228Z,6.74
2018-12-21T06:25:11.282Z,6.74
2018-12-21T06:27:11.276Z,6.92
2018-12-21T06:28:25.996Z,6.81
2018-12-21T06:29:11.411Z,6.8
2018-12-21T06:30:11.324Z,6.84
2018-12-21T06:31:26.003Z,6.81
2018-12-21T06:32:11.361Z,6.81
2018-12-21T06:33:11.371Z,6.76
2018-12-21T06:34:11.389Z,6.79
2018-12-21T06:35:11.403Z,6.88
2018-12-21T06:36:11.424Z,6.84
2018-12-21T06:37:26.200Z,6.74
2018-12-21T06:38:11.501Z,6.76
2018-12-21T06:39:11.466Z,6.71
2018-12-21T06:41:11.495Z,6.84
2018-12-21T06:42:11.514Z,6.71
2018-12-21T06:43:11.534Z,6.79
2018-12-21T06:44:11.547Z,6.76
2018-12-21T06:45:11.560Z,6.81
2018-12-21T06:47:26.253Z,6.81
2018-12-21T06:48:11.609Z,6.8
2018-12-21T06:49:11.621Z,6.85
2018-12-21T06:50:11.640Z,6.76
2018-12-21T06:51:11.411Z,6.81
2018-12-21T06:52:11.669Z,6.88
2018-12-21T06:53:20.276Z,6.79
2018-12-21T06:54:11.704Z,6.84
2018-12-21T06:55:26.386Z,6.85
2018-12-21T06:56:26.400Z,6.85
2018-12-21T06:57:11.747Z,6.85
2018-12-21T06:58:11.764Z,6.81
2018-12-21T06:59:11.785Z,6.89
2018-12-21T07:00:11.903Z,6.81
2018-12-21T07:01:11.814Z,6.95
2018-12-21T07:02:26.490Z,6.95
2018-12-21T07:03:19.386Z,6.84
2018-12-21T07:04:11.865Z,6.84
2018-12-21T07:05:11.880Z,6.94
2018-12-21T07:06:11.894Z,6.91
2018-12-21T07:07:11.907Z,6.97
2018-12-21T07:08:11.921Z,6.84
2018-12-21T07:09:11.936Z,6.91
2018-12-21T07:10:11.954Z,6.87
2018-12-21T07:11:11.969Z,6.84
2018-12-21T07:12:11.992Z,6.89
2018-12-21T07:13:26.666Z,6.88
2018-12-21T07:14:26.680Z,6.98
2018-12-21T07:15:12.035Z,6.95
2018-12-21T07:16:12.048Z,6.85
2018-12-21T07:17:12.062Z,6.89
2018-12-21T07:18:12.085Z,6.92
2018-12-21T07:19:12.208Z,6.95
2018-12-21T07:20:12.188Z,6.81
2018-12-21T07:21:12.126Z,6.89
2018-12-21T07:22:12.145Z,6.81
2018-12-21T07:23:12.157Z,6.79
2018-12-21T07:24:12.174Z,6.95
2018-12-21T07:25:12.190Z,6.89
2018-12-21T07:27:12.222Z,6.92
2018-12-21T07:28:11.991Z,6.91
2018-12-21T07:29:12.259Z,6.95
2018-12-21T07:30:12.271Z,6.92
2018-12-21T07:31:12.404Z,6.97
2018-12-21T07:32:12.300Z,6.98
2018-12-21T07:33:27.026Z,6.99
2018-12-21T07:34:28.483Z,6.97
2018-12-21T07:35:12.348Z,6.98
2018-12-21T07:36:13.655Z,6.99
2018-12-21T07:37:12.377Z,7.06
2018-12-21T07:38:12.395Z,6.97
2018-12-21T07:39:12.419Z,6.97
2018-12-21T07:40:12.432Z,6.99
2018-12-21T07:41:12.444Z,7.05
2018-12-21T07:42:12.456Z,6.95
2018-12-21T07:43:27.139Z,6.95
2018-12-21T07:45:12.506Z,6.92
2018-12-21T07:46:12.288Z,6.87
2018-12-21T07:47:12.641Z,6.95
2018-12-21T07:48:27.215Z,6.97
2018-12-21T07:49:12.566Z,6.87
2018-12-21T07:50:27.249Z,6.81
2018-12-21T07:51:12.727Z,6.8
2018-12-21T07:52:12.613Z,6.8
2018-12-21T07:53:12.633Z,6.97
2018-12-21T07:54:12.645Z,6.94
2018-12-21T07:55:12.663Z,6.85
2018-12-21T07:56:12.678Z,6.79
2018-12-21T07:57:12.696Z,6.77
2018-12-21T07:58:12.716Z,6.77
2018-12-21T07:59:12.724Z,6.7
2018-12-21T08:00:12.740Z,6.67
2018-12-21T08:01:12.758Z,6.73
2018-12-21T08:02:27.435Z,6.76
2018-12-21T08:03:27.450Z,6.74
2018-12-21T08:04:12.803Z,6.73
2018-12-21T08:05:12.820Z,6.79
2018-12-21T08:06:27.497Z,6.87
2018-12-21T08:07:12.860Z,6.73
2018-12-21T08:08:12.969Z,6.74
2018-12-21T08:09:12.883Z,6.73
2018-12-21T08:10:12.901Z,6.74
2018-12-21T08:11:12.914Z,6.77
2018-12-21T08:12:12.936Z,6.84
2018-12-21T08:13:12.949Z,6.91
2018-12-21T08:15:12.974Z,6.87
2018-12-21T08:17:13.017Z,6.8
2018-12-21T08:18:13.021Z,6.95
2018-12-21T08:19:27.700Z,6.88
2018-12-21T08:20:13.055Z,6.92
2018-12-21T08:21:13.069Z,6.91
2018-12-21T08:22:27.750Z,6.97
2018-12-21T08:23:13.101Z,6.88
2018-12-21T08:24:13.119Z,6.99
2018-12-21T08:25:13.191Z,6.95
2018-12-21T08:26:13.148Z,6.98
2018-12-21T08:28:13.178Z,6.98
2018-12-21T08:29:13.298Z,7.02
2018-12-21T08:30:13.209Z,7.07
2018-12-21T08:31:13.715Z,7.05
2018-12-21T08:32:13.243Z,6.98
2018-12-21T08:34:13.277Z,6.99
2018-12-21T08:35:13.292Z,6.94
2018-12-21T08:36:13.307Z,6.94
2018-12-21T08:37:27.986Z,6.94
2018-12-21T08:38:13.340Z,6.98
2018-12-21T08:39:13.364Z,6.99
2018-12-21T08:40:13.374Z,6.98
2018-12-21T08:41:13.389Z,6.99
2018-12-21T08:42:13.404Z,6.94
2018-12-21T08:43:13.417Z,7.02
2018-12-21T08:44:13.437Z,7.05
2018-12-21T08:45:13.453Z,7.03
2018-12-21T08:46:13.468Z,6.97
2018-12-21T08:47:13.488Z,6.99
2018-12-21T08:48:13.500Z,7.07
2018-12-21T08:49:13.516Z,7.13
2018-12-21T08:50:13.531Z,7.1
2018-12-21T08:51:13.553Z,7.13
2018-12-21T08:52:13.564Z,7.06
2018-12-21T08:53:13.584Z,7.07
2018-12-21T08:54:13.597Z,7.06
2018-12-21T08:55:14.470Z,7.12
2018-12-21T08:56:13.631Z,6.99
2018-12-21T08:57:13.641Z,7.06
2018-12-21T08:58:13.661Z,7.09
2018-12-21T08:59:13.676Z,7.15
2018-12-21T09:00:13.689Z,7.07
2018-12-21T09:01:13.705Z,7.07
2018-12-21T09:02:13.718Z,7.1
2018-12-21T09:03:13.746Z,7.1
2018-12-21T09:04:32.256Z,7.13
2018-12-21T09:05:13.772Z,7.13
2018-12-21T09:06:20.962Z,7.12
2018-12-21T09:07:13.803Z,7.09
2018-12-21T09:08:13.819Z,7.13
2018-12-21T09:09:28.496Z,7.13
2018-12-21T09:10:13.848Z,7.12
2018-12-21T09:11:13.864Z,7.09
2018-12-21T09:12:13.884Z,7.17
2018-12-21T09:13:13.903Z,7.23
2018-12-21T09:14:13.912Z,7.2
2018-12-21T09:15:13.929Z,7.2
2018-12-21T09:16:13.945Z,7.2
2018-12-21T09:17:13.959Z,7.25
2018-12-21T09:20:14.026Z,7.35
2018-12-21T09:21:28.688Z,7.34
2018-12-21T09:22:14.048Z,7.32
2018-12-21T09:23:28.718Z,7.32
2018-12-21T09:24:14.073Z,7.37
2018-12-21T09:25:28.765Z,7.37
2018-12-21T09:26:14.102Z,7.35
2018-12-21T09:27:14.127Z,7.34
2018-12-21T09:28:14.136Z,7.39
2018-12-21T09:29:14.150Z,7.34
2018-12-21T09:30:14.169Z,7.34
2018-12-21T09:31:14.187Z,7.42
2018-12-21T09:32:28.871Z,7.45
2018-12-21T09:33:14.217Z,7.42
2018-12-21T09:34:14.239Z,7.37
2018-12-21T09:35:14.250Z,7.39
2018-12-21T09:36:14.266Z,7.34
2018-12-21T09:37:14.287Z,7.35
2018-12-21T09:38:28.961Z,7.4
2018-12-21T09:39:14.314Z,7.4
2018-12-21T09:40:14.483Z,7.49
2018-12-21T09:41:29.013Z,7.49
2018-12-21T09:42:14.370Z,7.6
2018-12-21T09:43:14.383Z,7.57
2018-12-21T09:44:14.395Z,7.6
2018-12-21T09:45:14.410Z,7.6
2018-12-21T09:46:14.427Z,7.64
2018-12-21T09:47:14.450Z,7.63
2018-12-21T09:48:14.461Z,7.55
2018-12-21T09:49:14.479Z,7.63
2018-12-21T09:50:14.496Z,7.57
2018-12-21T09:51:14.511Z,7.67
2018-12-21T09:53:29.204Z,7.69
2018-12-21T09:54:15.119Z,7.6
2018-12-21T09:55:14.578Z,7.67
2018-12-21T09:56:14.592Z,7.69
2018-12-21T09:57:29.270Z,7.68
2018-12-21T09:58:14.624Z,7.69
2018-12-21T09:59:14.639Z,7.75
2018-12-21T10:00:14.658Z,7.77
2018-12-21T10:01:14.672Z,7.82
2018-12-21T10:02:14.698Z,7.82
2018-12-21T10:03:14.706Z,7.8
2018-12-21T10:04:14.722Z,7.87
2018-12-21T10:05:16.987Z,7.87
2018-12-21T10:06:14.861Z,7.85
2018-12-21T10:07:14.882Z,7.87
2018-12-21T10:08:14.791Z,7.95
2018-12-21T10:09:14.802Z,8
2018-12-21T10:10:29.485Z,8.01
2018-12-21T10:11:14.845Z,8.01
2018-12-21T10:12:29.520Z,8
2018-12-21T10:13:14.880Z,8
2018-12-21T10:14:14.902Z,8
2018-12-21T10:15:14.908Z,8.12
2018-12-21T10:16:14.924Z,8.11
2018-12-21T10:17:14.939Z,8.15
2018-12-21T10:18:14.957Z,8.23
2018-12-21T10:19:14.975Z,8.11
2018-12-21T10:20:15.089Z,8.18
2018-12-21T10:21:15.005Z,8.23
2018-12-21T10:23:15.039Z,8.23
2018-12-21T10:24:23.189Z,8.18
2018-12-21T10:25:15.072Z,8.2
2018-12-21T10:26:15.087Z,8.25
2018-12-21T10:27:15.104Z,8.25
2018-12-21T10:28:15.119Z,8.25
2018-12-21T10:29:15.136Z,8.29
2018-12-21T10:30:15.154Z,8.26
2018-12-21T10:31:15.216Z,8.25
2018-12-21T10:32:15.190Z,8.4
2018-12-21T10:33:15.207Z,8.36
2018-12-21T10:34:15.220Z,8.33
2018-12-21T10:36:15.255Z,8.25
2018-12-21T10:37:16.739Z,8.33
2018-12-21T10:39:15.406Z,8.33
2018-12-21T10:40:15.420Z,8.41
2018-12-21T10:41:15.346Z,8.34
2018-12-21T10:42:15.360Z,8.38
2018-12-21T10:43:15.375Z,8.36
2018-12-21T10:44:30.055Z,8.34
2018-12-21T10:45:15.408Z,8.3
2018-12-21T10:46:15.423Z,8.36
2018-12-21T10:47:15.447Z,8.45
2018-12-21T10:48:15.460Z,8.33
2018-12-21T10:49:15.491Z,8.47
2018-12-21T10:50:30.161Z,8.48
2018-12-21T10:51:15.512Z,8.48
2018-12-21T10:53:15.540Z,8.48
2018-12-21T10:54:15.558Z,8.43
2018-12-21T10:56:15.595Z,8.34
2018-12-21T10:57:30.272Z,8.44
2018-12-21T10:58:15.624Z,8.45
2018-12-21T10:59:23.453Z,8.45
2018-12-21T11:00:30.323Z,8.55
2018-12-21T11:01:15.681Z,8.33
2018-12-21T11:02:15.692Z,8.43
2018-12-21T11:03:15.713Z,8.43
2018-12-21T11:04:15.481Z,8.5
2018-12-21T11:05:17.300Z,8.45
2018-12-21T11:06:15.766Z,8.44
2018-12-21T11:07:15.780Z,8.45
2018-12-21T11:09:15.819Z,8.5
2018-12-21T11:10:15.583Z,8.47
2018-12-21T11:11:15.850Z,8.47
2018-12-21T11:12:15.869Z,8.43
2018-12-21T11:13:15.966Z,8.47
2018-12-21T11:14:15.897Z,8.43
2018-12-21T11:15:15.913Z,8.45
2018-12-21T11:16:30.592Z,8.45
2018-12-21T11:17:15.951Z,8.3
2018-12-21T11:18:15.969Z,8.44
2018-12-21T11:19:15.979Z,8.44
2018-12-21T11:20:15.997Z,8.44
2018-12-21T11:21:16.014Z,8.43
2018-12-21T11:22:16.035Z,8.43
2018-12-21T11:23:16.050Z,8.53
2018-12-21T11:25:16.099Z,8.43
2018-12-21T11:26:16.099Z,8.44
2018-12-21T11:27:16.117Z,8.55
2018-12-21T11:28:16.135Z,8.43
2018-12-21T11:29:16.155Z,8.52
2018-12-21T11:30:16.171Z,8.59
2018-12-21T11:31:16.183Z,8.56
2018-12-21T11:32:30.864Z,8.62
2018-12-21T11:33:16.220Z,8.58
2018-12-21T11:34:16.234Z,8.58
2018-12-21T11:35:16.250Z,8.55
2018-12-21T11:36:16.268Z,8.56
2018-12-21T11:37:16.291Z,8.55
2018-12-21T11:39:16.322Z,8.5
2018-12-21T11:40:16.335Z,8.41
2018-12-21T11:41:16.354Z,8.41
2018-12-21T11:42:16.372Z,8.38
2018-12-21T11:43:16.393Z,8.44
2018-12-21T11:44:16.407Z,8.44
2018-12-21T11:45:31.085Z,8.43
2018-12-21T11:46:16.441Z,8.36
2018-12-21T11:47:31.119Z,8.38
2018-12-21T11:48:16.472Z,8.4
2018-12-21T11:49:16.499Z,8.38
2018-12-21T11:50:16.510Z,8.38
2018-12-21T11:51:16.529Z,8.48
2018-12-21T11:52:16.541Z,8.41
2018-12-21T11:53:16.557Z,8.38
2018-12-21T11:54:31.244Z,8.38
2018-12-21T11:55:16.603Z,8.52
2018-12-21T11:58:16.645Z,8.34
2018-12-21T11:59:16.661Z,8.43
2018-12-21T12:00:16.682Z,8.45
2018-12-21T12:01:16.691Z,8.44
2018-12-21T12:02:24.208Z,8.41
2018-12-21T12:03:16.726Z,8.43
2018-12-21T12:04:16.742Z,8.45
2018-12-21T12:05:16.765Z,8.38
2018-12-21T12:06:16.802Z,8.38
2018-12-21T12:07:16.795Z,8.38
2018-12-21T12:08:16.813Z,8.36
2018-12-21T12:09:16.832Z,8.41
2018-12-21T12:11:16.868Z,8.41
2018-12-21T12:12:16.883Z,8.4
2018-12-21T12:13:16.898Z,8.41
2018-12-21T12:14:16.919Z,8.34
2018-12-21T12:15:16.931Z,8.41
2018-12-21T12:16:16.949Z,8.5
2018-12-21T12:17:16.962Z,8.48
2018-12-21T12:19:31.660Z,8.58
2018-12-21T12:20:17.015Z,8.37
2018-12-21T12:21:17.029Z,8.48
2018-12-21T12:22:17.148Z,8.45
2018-12-21T12:23:17.063Z,8.45
2018-12-21T12:24:17.088Z,8.52
2018-12-21T12:25:17.097Z,8.44
2018-12-21T12:27:17.134Z,8.43
2018-12-21T12:28:17.156Z,8.38
2018-12-21T12:30:17.184Z,8.28
2018-12-21T12:31:31.861Z,8.43
2018-12-21T12:32:31.878Z,8.3
2018-12-21T12:33:17.234Z,8.4
2018-12-21T12:34:17.252Z,8.41
2018-12-21T12:35:31.933Z,8.43
2018-12-21T12:36:17.284Z,8.37
2018-12-21T12:37:17.302Z,8.36
2018-12-21T12:38:17.317Z,8.4
2018-12-21T12:39:17.342Z,8.3
2018-12-21T12:40:17.349Z,8.41
2018-12-21T12:41:17.464Z,8.41
2018-12-21T12:43:17.407Z,8.33
2018-12-21T12:45:17.433Z,8.34
2018-12-21T12:46:17.450Z,8.43
2018-12-21T12:47:32.132Z,8.33
2018-12-21T12:48:17.493Z,8.3
2018-12-21T12:49:17.503Z,8.2
2018-12-21T12:50:17.516Z,8.33
2018-12-21T12:51:32.196Z,8.23
2018-12-21T12:52:17.557Z,8.2
2018-12-21T12:53:17.570Z,8.28
2018-12-21T12:54:17.586Z,8.2
2018-12-21T12:55:17.611Z,8.2
2018-12-21T12:56:17.622Z,8.2
2018-12-21T12:58:17.658Z,8.3
2018-12-21T12:59:17.668Z,8.29
2018-12-21T13:00:17.691Z,8.23
2018-12-21T13:01:17.701Z,8.23
2018-12-21T13:02:32.382Z,8.23
2018-12-21T13:03:32.397Z,8.23
2018-12-21T13:04:17.849Z,8.19
2018-12-21T13:05:17.769Z,8.15
2018-12-21T13:06:17.781Z,8.23
2018-12-21T13:07:32.463Z,8.1
2018-12-21T13:08:17.918Z,8.16
2018-12-21T13:09:17.833Z,8.04
2018-12-21T13:10:17.848Z,8.08
2018-12-21T13:11:17.871Z,8.07
2018-12-21T13:12:17.893Z,8.01
2018-12-21T13:13:17.898Z,7.98
2018-12-21T13:14:19.099Z,8.08
2018-12-21T13:15:17.955Z,8.01
2018-12-21T13:16:17.951Z,8.08
2018-12-21T13:17:17.970Z,8.07
2018-12-21T13:18:17.981Z,7.95
2018-12-21T13:19:32.662Z,7.95
2018-12-21T13:20:18.016Z,8
2018-12-21T13:21:18.032Z,7.98
2018-12-21T13:22:32.711Z,8.02
2018-12-21T13:23:18.069Z,7.92
2018-12-21T13:24:18.082Z,8
2018-12-21T13:25:18.099Z,8.01
2018-12-21T13:26:18.114Z,7.92
2018-12-21T13:27:18.131Z,7.95
2018-12-21T13:28:18.150Z,7.89
2018-12-21T13:29:18.162Z,7.92
2018-12-21T13:30:18.180Z,7.87
2018-12-21T13:31:18.193Z,8
2018-12-21T13:32:18.216Z,7.95
2018-12-21T13:34:18.248Z,7.95
2018-12-21T13:35:18.268Z,7.9
2018-12-21T13:36:18.288Z,7.82
2018-12-21T13:37:18.295Z,7.79
2018-12-21T13:38:18.311Z,7.8
2018-12-21T13:39:18.336Z,7.86
2018-12-21T13:40:18.339Z,7.85
2018-12-21T13:41:18.358Z,7.86
2018-12-21T13:42:18.378Z,7.79
2018-12-21T13:43:18.399Z,7.77
2018-12-21T13:44:18.408Z,7.69
2018-12-21T13:45:18.423Z,7.82
2018-12-21T13:46:18.446Z,7.64
2018-12-21T13:47:18.453Z,7.63
2018-12-21T13:48:18.470Z,7.67
2018-12-21T13:49:18.488Z,7.63
2018-12-21T13:50:18.501Z,7.57
2018-12-21T13:51:33.184Z,7.67
2018-12-21T13:52:18.541Z,7.63
2018-12-21T13:53:18.558Z,7.67
2018-12-21T13:54:33.230Z,7.68
2018-12-21T13:56:18.598Z,7.68
2018-12-21T13:57:18.615Z,7.64
2018-12-21T13:58:18.646Z,7.57
2018-12-21T13:59:18.647Z,7.6
2018-12-21T14:00:18.669Z,7.61
2018-12-21T14:01:18.680Z,7.58
2018-12-21T14:02:18.698Z,7.57
2018-12-21T14:03:18.716Z,7.6
2018-12-21T14:05:18.748Z,7.69
2018-12-21T14:06:33.425Z,7.57
2018-12-21T14:07:33.440Z,7.57
2018-12-21T14:08:18.796Z,7.64
2018-12-21T14:09:18.809Z,7.64
2018-12-21T14:10:33.491Z,7.64
2018-12-21T14:11:18.592Z,7.61
2018-12-21T14:12:18.859Z,7.58
2018-12-21T14:13:18.872Z,7.69
2018-12-21T14:14:18.892Z,7.69
2018-12-21T14:15:18.904Z,7.6
2018-12-21T14:16:18.923Z,7.58
2018-12-21T14:17:18.937Z,7.68
2018-12-21T14:18:18.955Z,7.61
2018-12-21T14:19:18.968Z,7.68
2018-12-21T14:20:18.987Z,7.71
2018-12-21T14:22:19.016Z,7.53
2018-12-21T14:23:19.032Z,7.6
2018-12-21T14:24:19.055Z,7.64
2018-12-21T14:25:19.069Z,7.6
2018-12-21T14:26:33.748Z,7.53